createdAt,value
2017-10-25T00:00:38.915Z,1013.77
2017-10-25T00:01:19.501Z,1013.74
2017-10-25T00:02:00.086Z,1013.76
2017-10-25T00:02:40.659Z,1013.8
2017-10-25T00:03:21.273Z,1013.77
2017-10-25T00:04:01.890Z,1013.81
2017-10-25T00:04:42.453Z,1013.8
2017-10-25T00:05:23.089Z,1013.75
2017-10-25T00:06:03.667Z,1013.69
2017-10-25T00:06:44.277Z,1013.72
2017-10-25T00:07:24.905Z,1013.74
2017-10-25T00:08:05.487Z,1013.69
2017-10-25T00:08:46.070Z,1013.65
2017-10-25T00:09:26.653Z,1013.73
2017-10-25T00:10:07.271Z,1013.67
2017-10-25T00:10:47.848Z,1013.68
2017-10-25T00:11:28.417Z,1013.7
2017-10-25T00:12:09.011Z,1013.67
2017-10-25T00:12:49.623Z,1013.63
2017-10-25T00:13:30.200Z,1013.59
2017-10-25T00:14:10.778Z,1013.59
2017-10-25T00:14:51.398Z,1013.6
2017-10-25T00:15:31.988Z,1013.64
2017-10-25T00:16:12.567Z,1013.57
2017-10-25T00:16:53.206Z,1013.58
2017-10-25T00:17:33.815Z,1013.65
2017-10-25T00:18:14.401Z,1013.6
2017-10-25T00:18:54.980Z,1013.67
2017-10-25T00:19:35.567Z,1013.58
2017-10-25T00:20:16.177Z,1013.64
2017-10-25T00:20:56.831Z,1013.64
2017-10-25T00:21:37.475Z,1013.6
2017-10-25T00:22:18.118Z,1013.55
2017-10-25T00:22:58.705Z,1013.6
2017-10-25T00:23:39.288Z,1013.57
2017-10-25T00:24:19.895Z,1013.56
2017-10-25T00:25:00.494Z,1013.56
2017-10-25T00:25:41.100Z,1013.56
2017-10-25T00:26:21.684Z,1013.54
2017-10-25T00:27:02.289Z,1013.5
2017-10-25T00:27:42.908Z,1013.55
2017-10-25T00:28:23.505Z,1013.51
2017-10-25T00:29:04.162Z,1013.54
2017-10-25T00:29:44.771Z,1013.56
2017-10-25T00:30:25.400Z,1013.54
2017-10-25T00:31:06.012Z,1013.57
2017-10-25T00:31:46.616Z,1013.55
2017-10-25T00:32:27.220Z,1013.54
2017-10-25T00:33:07.832Z,1013.49
2017-10-25T00:33:48.427Z,1013.48
2017-10-25T00:34:29.026Z,1013.54
2017-10-25T00:35:09.644Z,1013.48
2017-10-25T00:35:50.302Z,1013.51
2017-10-25T00:36:30.900Z,1013.47
2017-10-25T00:37:11.512Z,1013.49
2017-10-25T00:37:52.095Z,1013.5
2017-10-25T00:38:32.650Z,1013.48
2017-10-25T00:39:13.254Z,1013.48
2017-10-25T00:39:53.854Z,1013.45
2017-10-25T00:40:34.444Z,1013.44
2017-10-25T00:41:15.033Z,1013.44
2017-10-25T00:41:55.603Z,1013.45
2017-10-25T00:42:36.201Z,1013.47
2017-10-25T00:43:16.819Z,1013.47
2017-10-25T00:43:57.403Z,1013.48
2017-10-25T00:44:38.005Z,1013.52
2017-10-25T00:45:18.574Z,1013.44
2017-10-25T00:45:59.156Z,1013.46
2017-10-25T00:46:39.742Z,1013.47
2017-10-25T00:47:20.313Z,1013.46
2017-10-25T00:48:00.885Z,1013.45
2017-10-25T00:48:41.458Z,1013.41
2017-10-25T00:49:22.041Z,1013.46
2017-10-25T00:50:02.623Z,1013.43
2017-10-25T00:50:43.215Z,1013.43
2017-10-25T00:51:23.801Z,1013.39
2017-10-25T00:52:04.389Z,1013.41
2017-10-25T00:52:44.970Z,1013.42
2017-10-25T00:53:25.566Z,1013.41
2017-10-25T00:54:06.142Z,1013.39
2017-10-25T00:54:46.726Z,1013.38
2017-10-25T00:55:27.286Z,1013.41
2017-10-25T00:56:07.878Z,1013.41
2017-10-25T00:56:48.479Z,1013.38
2017-10-25T00:57:29.051Z,1013.4
2017-10-25T00:58:09.654Z,1013.39
2017-10-25T00:58:50.233Z,1013.36
2017-10-25T00:59:30.817Z,1013.35
2017-10-25T01:00:11.404Z,1013.31
2017-10-25T01:00:52.009Z,1013.32
2017-10-25T01:01:32.636Z,1013.33
2017-10-25T01:02:13.232Z,1013.29
2017-10-25T01:02:53.816Z,1013.35
2017-10-25T01:03:34.438Z,1013.33
2017-10-25T01:04:15.068Z,1013.26
2017-10-25T01:04:55.648Z,1013.24
2017-10-25T01:05:36.216Z,1013.21
2017-10-25T01:06:16.806Z,1013.23
2017-10-25T01:06:57.390Z,1013.21
2017-10-25T01:07:38.030Z,1013.26
2017-10-25T01:08:18.590Z,1013.19
2017-10-25T01:08:59.197Z,1013.21
2017-10-25T01:09:39.807Z,1013.17
2017-10-25T01:10:20.404Z,1013.17
2017-10-25T01:11:01.041Z,1013.16
2017-10-25T01:11:41.609Z,1013.12
2017-10-25T01:12:22.196Z,1013.09
2017-10-25T01:13:02.793Z,1013.18
2017-10-25T01:13:43.389Z,1013.14
2017-10-25T01:14:23.990Z,1013.16
2017-10-25T01:15:04.578Z,1013.12
2017-10-25T01:15:45.172Z,1013.12
2017-10-25T01:16:25.769Z,1013.1
2017-10-25T01:17:06.375Z,1013.07
2017-10-25T01:17:46.973Z,1013.07
2017-10-25T01:18:27.604Z,1013.07
2017-10-25T01:19:08.213Z,1013.13
2017-10-25T01:19:48.838Z,1013.08
2017-10-25T01:20:29.428Z,1013.14
2017-10-25T01:21:10.049Z,1013.12
2017-10-25T01:21:50.629Z,1013.13
2017-10-25T01:22:31.191Z,1013.14
2017-10-25T01:23:11.845Z,1013.12
2017-10-25T01:23:52.461Z,1013.04
2017-10-25T01:24:33.042Z,1013.09
2017-10-25T01:25:13.615Z,1013.08
2017-10-25T01:25:54.198Z,1013.04
2017-10-25T01:26:34.765Z,1013.02
2017-10-25T01:27:15.347Z,1012.99
2017-10-25T01:27:55.960Z,1012.99
2017-10-25T01:28:36.533Z,1013.03
2017-10-25T01:29:17.115Z,1012.98
2017-10-25T01:29:57.714Z,1012.97
2017-10-25T01:30:38.273Z,1012.99
2017-10-25T01:31:18.861Z,1013
2017-10-25T01:31:59.474Z,1013
2017-10-25T01:32:40.057Z,1013.02
2017-10-25T01:33:20.678Z,1013.03
2017-10-25T01:34:01.275Z,1012.99
2017-10-25T01:34:41.886Z,1013.06
2017-10-25T01:35:22.473Z,1013
2017-10-25T01:36:03.049Z,1013.07
2017-10-25T01:36:43.644Z,1013.06
2017-10-25T01:37:24.283Z,1013.06
2017-10-25T01:38:04.841Z,1013.03
2017-10-25T01:38:45.449Z,1013.05
2017-10-25T01:39:26.063Z,1013.04
2017-10-25T01:40:06.644Z,1013.02
2017-10-25T01:40:47.247Z,1013
2017-10-25T01:41:27.824Z,1012.99
2017-10-25T01:42:08.442Z,1012.97
2017-10-25T01:42:49.076Z,1012.96
2017-10-25T01:43:29.654Z,1012.95
2017-10-25T01:44:10.262Z,1012.94
2017-10-25T01:44:50.843Z,1012.95
2017-10-25T01:45:31.432Z,1012.94
2017-10-25T01:46:12.005Z,1012.9
2017-10-25T01:46:52.558Z,1012.89
2017-10-25T01:47:33.125Z,1012.95
2017-10-25T01:48:13.699Z,1012.93
2017-10-25T01:48:54.271Z,1012.99
2017-10-25T01:49:34.885Z,1012.97
2017-10-25T01:50:15.473Z,1012.93
2017-10-25T01:50:56.037Z,1012.95
2017-10-25T01:51:36.626Z,1012.96
2017-10-25T01:52:17.203Z,1013.01
2017-10-25T01:52:57.783Z,1012.97
2017-10-25T01:53:38.350Z,1012.95
2017-10-25T01:54:18.950Z,1012.96
2017-10-25T01:54:59.544Z,1012.93
2017-10-25T01:55:40.141Z,1012.92
2017-10-25T01:56:20.720Z,1012.92
2017-10-25T01:57:01.309Z,1012.87
2017-10-25T01:57:41.900Z,1012.9
2017-10-25T01:58:22.483Z,1012.89
2017-10-25T01:59:03.076Z,1012.88
2017-10-25T01:59:43.661Z,1012.88
2017-10-25T02:00:24.238Z,1012.93
2017-10-25T02:01:04.815Z,1012.96
2017-10-25T02:01:45.395Z,1012.96
2017-10-25T02:02:25.996Z,1012.98
2017-10-25T02:03:06.595Z,1012.92
2017-10-25T02:03:47.160Z,1012.9
2017-10-25T02:04:27.747Z,1012.9
2017-10-25T02:05:08.344Z,1012.91
2017-10-25T02:05:48.918Z,1012.88
2017-10-25T02:06:29.505Z,1012.87
2017-10-25T02:07:10.056Z,1012.88
2017-10-25T02:07:50.634Z,1012.86
2017-10-25T02:08:31.202Z,1012.89
2017-10-25T02:09:11.811Z,1012.87
2017-10-25T02:09:52.409Z,1012.81
2017-10-25T02:10:33.001Z,1012.83
2017-10-25T02:11:13.568Z,1012.8
2017-10-25T02:11:54.156Z,1012.79
2017-10-25T02:12:34.740Z,1012.86
2017-10-25T02:13:15.320Z,1012.84
2017-10-25T02:13:55.891Z,1012.82
2017-10-25T02:14:36.470Z,1012.81
2017-10-25T02:15:17.049Z,1012.81
2017-10-25T02:15:57.626Z,1012.84
2017-10-25T02:16:38.222Z,1012.86
2017-10-25T02:17:18.814Z,1012.83
2017-10-25T02:17:59.385Z,1012.83
2017-10-25T02:18:39.971Z,1012.81
2017-10-25T02:19:20.550Z,1012.85
2017-10-25T02:20:01.142Z,1012.84
2017-10-25T02:20:41.773Z,1012.87
2017-10-25T02:21:22.360Z,1012.85
2017-10-25T02:22:02.951Z,1012.83
2017-10-25T02:22:43.527Z,1012.81
2017-10-25T02:23:24.111Z,1012.87
2017-10-25T02:24:04.746Z,1012.88
2017-10-25T02:24:45.527Z,1012.84
2017-10-25T02:25:26.197Z,1012.83
2017-10-25T02:26:07.069Z,1012.84
2017-10-25T02:26:47.926Z,1012.82
2017-10-25T02:27:28.758Z,1012.84
2017-10-25T02:28:09.545Z,1012.83
2017-10-25T02:28:50.483Z,1012.86
2017-10-25T02:29:31.155Z,1012.81
2017-10-25T02:30:12.164Z,1012.82
2017-10-25T02:30:53.163Z,1012.8
2017-10-25T02:31:33.885Z,1012.8
2017-10-25T02:32:15.499Z,1012.78
2017-10-25T02:32:56.245Z,1012.81
2017-10-25T02:33:37.108Z,1012.82
2017-10-25T02:34:17.687Z,1012.78
2017-10-25T02:34:58.289Z,1012.81
2017-10-25T02:35:38.875Z,1012.82
2017-10-25T02:36:19.483Z,1012.77
2017-10-25T02:37:00.078Z,1012.81
2017-10-25T02:37:40.682Z,1012.77
2017-10-25T02:38:21.293Z,1012.8
2017-10-25T02:39:01.906Z,1012.8
2017-10-25T02:39:42.467Z,1012.76
2017-10-25T02:40:23.108Z,1012.81
2017-10-25T02:41:03.682Z,1012.77
2017-10-25T02:41:44.297Z,1012.78
2017-10-25T02:42:24.908Z,1012.8
2017-10-25T02:43:05.526Z,1012.78
2017-10-25T02:43:46.240Z,1012.77
2017-10-25T02:44:27.016Z,1012.77
2017-10-25T02:45:07.937Z,1012.79
2017-10-25T02:45:48.621Z,1012.76
2017-10-25T02:46:29.354Z,1012.78
2017-10-25T02:47:10.081Z,1012.76
2017-10-25T02:47:50.837Z,1012.79
2017-10-25T02:48:31.639Z,1012.79
2017-10-25T02:49:12.293Z,1012.8
2017-10-25T02:49:53.312Z,1012.76
2017-10-25T02:50:34.169Z,1012.71
2017-10-25T02:51:14.933Z,1012.74
2017-10-25T02:51:55.626Z,1012.78
2017-10-25T02:52:36.311Z,1012.75
2017-10-25T02:53:16.929Z,1012.78
2017-10-25T02:53:57.523Z,1012.75
2017-10-25T02:54:38.106Z,1012.8
2017-10-25T02:55:18.711Z,1012.76
2017-10-25T02:55:59.299Z,1012.78
2017-10-25T02:56:39.934Z,1012.77
2017-10-25T02:57:20.587Z,1012.78
2017-10-25T02:58:01.144Z,1012.78
2017-10-25T02:58:41.737Z,1012.75
2017-10-25T02:59:22.483Z,1012.76
2017-10-25T03:00:03.554Z,1012.72
2017-10-25T03:00:44.297Z,1012.71
2017-10-25T03:01:25.084Z,1012.71
2017-10-25T03:02:05.811Z,1012.74
2017-10-25T03:02:46.729Z,1012.73
2017-10-25T03:03:27.497Z,1012.76
2017-10-25T03:04:08.420Z,1012.78
2017-10-25T03:04:49.048Z,1012.75
2017-10-25T03:05:30.029Z,1012.8
2017-10-25T03:06:10.578Z,1012.82
2017-10-25T03:06:51.273Z,1012.83
2017-10-25T03:07:31.967Z,1012.78
2017-10-25T03:08:12.636Z,1012.81
2017-10-25T03:08:53.237Z,1012.82
2017-10-25T03:09:33.819Z,1012.79
2017-10-25T03:10:14.414Z,1012.76
2017-10-25T03:10:55.039Z,1012.75
2017-10-25T03:11:35.699Z,1012.72
2017-10-25T03:12:16.355Z,1012.74
2017-10-25T03:12:56.996Z,1012.75
2017-10-25T03:13:37.601Z,1012.79
2017-10-25T03:14:18.201Z,1012.81
2017-10-25T03:14:58.846Z,1012.74
2017-10-25T03:15:39.464Z,1012.77
2017-10-25T03:16:20.044Z,1012.81
2017-10-25T03:17:00.622Z,1012.8
2017-10-25T03:17:41.228Z,1012.78
2017-10-25T03:18:21.824Z,1012.8
2017-10-25T03:19:02.413Z,1012.75
2017-10-25T03:19:43.029Z,1012.75
2017-10-25T03:20:23.629Z,1012.68
2017-10-25T03:21:04.269Z,1012.68
2017-10-25T03:21:44.898Z,1012.65
2017-10-25T03:22:25.497Z,1012.63
2017-10-25T03:23:06.104Z,1012.61
2017-10-25T03:23:46.743Z,1012.62
2017-10-25T03:24:27.347Z,1012.69
2017-10-25T03:25:07.947Z,1012.72
2017-10-25T03:25:48.538Z,1012.69
2017-10-25T03:26:29.142Z,1012.72
2017-10-25T03:27:09.872Z,1012.72
2017-10-25T03:27:50.447Z,1012.68
2017-10-25T03:28:31.021Z,1012.68
2017-10-25T03:29:11.594Z,1012.67
2017-10-25T03:29:52.195Z,1012.63
2017-10-25T03:30:32.757Z,1012.63
2017-10-25T03:31:13.343Z,1012.63
2017-10-25T03:31:53.919Z,1012.66
2017-10-25T03:32:34.513Z,1012.65
2017-10-25T03:33:15.102Z,1012.63
2017-10-25T03:33:55.699Z,1012.65
2017-10-25T03:34:36.315Z,1012.64
2017-10-25T03:35:16.921Z,1012.63
2017-10-25T03:35:57.517Z,1012.62
2017-10-25T03:36:38.101Z,1012.63
2017-10-25T03:37:18.682Z,1012.62
2017-10-25T03:37:59.295Z,1012.63
2017-10-25T03:38:39.880Z,1012.66
2017-10-25T03:39:20.461Z,1012.7
2017-10-25T03:40:01.078Z,1012.71
2017-10-25T03:40:41.646Z,1012.7
2017-10-25T03:41:22.233Z,1012.71
2017-10-25T03:42:02.852Z,1012.72
2017-10-25T03:42:43.435Z,1012.73
2017-10-25T03:43:24.045Z,1012.73
2017-10-25T03:44:04.650Z,1012.66
2017-10-25T03:44:45.202Z,1012.68
2017-10-25T03:45:25.794Z,1012.65
2017-10-25T03:46:06.378Z,1012.69
2017-10-25T03:46:47.022Z,1012.61
2017-10-25T03:47:27.631Z,1012.64
2017-10-25T03:48:08.215Z,1012.65
2017-10-25T03:48:48.807Z,1012.61
2017-10-25T03:49:29.407Z,1012.62
2017-10-25T03:50:10.014Z,1012.6
2017-10-25T03:50:50.628Z,1012.61
2017-10-25T03:51:31.203Z,1012.61
2017-10-25T03:52:11.831Z,1012.61
2017-10-25T03:52:52.422Z,1012.63
2017-10-25T03:53:33.032Z,1012.62
2017-10-25T03:54:13.636Z,1012.65
2017-10-25T03:54:54.264Z,1012.6
2017-10-25T03:55:34.834Z,1012.59
2017-10-25T03:56:15.429Z,1012.61
2017-10-25T03:56:56.036Z,1012.6
2017-10-25T03:57:36.692Z,1012.6
2017-10-25T03:58:17.347Z,1012.64
2017-10-25T03:58:57.937Z,1012.6
2017-10-25T03:59:38.564Z,1012.62
2017-10-25T04:00:19.161Z,1012.6
2017-10-25T04:00:59.785Z,1012.58
2017-10-25T04:01:40.429Z,1012.59
2017-10-25T04:02:21.023Z,1012.56
2017-10-25T04:03:01.612Z,1012.55
2017-10-25T04:03:42.199Z,1012.58
2017-10-25T04:04:22.790Z,1012.54
2017-10-25T04:05:03.400Z,1012.53
2017-10-25T04:05:43.995Z,1012.57
2017-10-25T04:06:24.612Z,1012.57
2017-10-25T04:07:05.210Z,1012.6
2017-10-25T04:07:45.790Z,1012.57
2017-10-25T04:08:26.367Z,1012.6
2017-10-25T04:09:06.950Z,1012.57
2017-10-25T04:09:47.544Z,1012.55
2017-10-25T04:10:28.146Z,1012.56
2017-10-25T04:11:08.737Z,1012.59
2017-10-25T04:11:49.334Z,1012.58
2017-10-25T04:12:29.899Z,1012.57
2017-10-25T04:13:10.519Z,1012.57
2017-10-25T04:13:51.112Z,1012.62
2017-10-25T04:14:31.726Z,1012.57
2017-10-25T04:15:12.304Z,1012.57
2017-10-25T04:15:52.917Z,1012.59
2017-10-25T04:16:33.485Z,1012.6
2017-10-25T04:17:14.071Z,1012.6
2017-10-25T04:17:54.689Z,1012.57
2017-10-25T04:18:35.281Z,1012.58
2017-10-25T04:19:15.932Z,1012.59
2017-10-25T04:19:56.526Z,1012.59
2017-10-25T04:20:37.135Z,1012.58
2017-10-25T04:21:17.724Z,1012.61
2017-10-25T04:21:58.304Z,1012.64
2017-10-25T04:22:38.891Z,1012.63
2017-10-25T04:23:19.479Z,1012.62
2017-10-25T04:24:00.092Z,1012.62
2017-10-25T04:24:40.692Z,1012.58
2017-10-25T04:25:21.267Z,1012.62
2017-10-25T04:26:01.851Z,1012.59
2017-10-25T04:26:42.426Z,1012.64
2017-10-25T04:27:23.003Z,1012.57
2017-10-25T04:28:03.575Z,1012.57
2017-10-25T04:28:44.145Z,1012.55
2017-10-25T04:29:24.701Z,1012.53
2017-10-25T04:30:05.279Z,1012.55
2017-10-25T04:30:45.923Z,1012.53
2017-10-25T04:31:26.523Z,1012.56
2017-10-25T04:32:07.112Z,1012.56
2017-10-25T04:32:47.704Z,1012.55
2017-10-25T04:33:28.298Z,1012.53
2017-10-25T04:34:08.930Z,1012.54
2017-10-25T04:34:49.480Z,1012.47
2017-10-25T04:35:30.087Z,1012.53
2017-10-25T04:36:10.713Z,1012.53
2017-10-25T04:36:51.314Z,1012.5
2017-10-25T04:37:31.892Z,1012.55
2017-10-25T04:38:12.494Z,1012.54
2017-10-25T04:38:53.116Z,1012.56
2017-10-25T04:39:33.722Z,1012.52
2017-10-25T04:40:14.305Z,1012.49
2017-10-25T04:40:54.897Z,1012.54
2017-10-25T04:41:35.504Z,1012.58
2017-10-25T04:42:16.113Z,1012.58
2017-10-25T04:42:56.725Z,1012.59
2017-10-25T04:43:37.287Z,1012.61
2017-10-25T04:44:17.868Z,1012.64
2017-10-25T04:44:58.469Z,1012.62
2017-10-25T04:45:39.043Z,1012.61
2017-10-25T04:46:19.623Z,1012.57
2017-10-25T04:47:00.211Z,1012.55
2017-10-25T04:47:40.801Z,1012.59
2017-10-25T04:48:21.367Z,1012.6
2017-10-25T04:49:02.038Z,1012.59
2017-10-25T04:49:42.629Z,1012.54
2017-10-25T04:50:23.223Z,1012.57
2017-10-25T04:51:03.933Z,1012.59
2017-10-25T04:51:44.580Z,1012.57
2017-10-25T04:52:25.257Z,1012.56
2017-10-25T04:53:05.918Z,1012.54
2017-10-25T04:53:46.778Z,1012.54
2017-10-25T04:54:27.512Z,1012.51
2017-10-25T04:55:08.271Z,1012.49
2017-10-25T04:55:49.148Z,1012.49
2017-10-25T04:56:30.438Z,1012.48
2017-10-25T04:57:11.237Z,1012.52
2017-10-25T04:57:52.167Z,1012.5
2017-10-25T04:58:32.916Z,1012.48
2017-10-25T04:59:13.729Z,1012.5
2017-10-25T04:59:54.477Z,1012.49
2017-10-25T05:00:35.151Z,1012.5
2017-10-25T05:01:15.798Z,1012.48
2017-10-25T05:01:56.406Z,1012.47
2017-10-25T05:02:36.980Z,1012.5
2017-10-25T05:03:17.813Z,1012.5
2017-10-25T05:03:58.696Z,1012.5
2017-10-25T05:04:39.514Z,1012.53
2017-10-25T05:05:20.388Z,1012.51
2017-10-25T05:06:01.036Z,1012.45
2017-10-25T05:06:41.612Z,1012.51
2017-10-25T05:07:22.204Z,1012.44
2017-10-25T05:08:02.807Z,1012.43
2017-10-25T05:08:43.396Z,1012.44
2017-10-25T05:09:24.004Z,1012.46
2017-10-25T05:10:04.566Z,1012.51
2017-10-25T05:10:45.165Z,1012.51
2017-10-25T05:11:25.759Z,1012.51
2017-10-25T05:12:06.340Z,1012.48
2017-10-25T05:12:46.907Z,1012.49
2017-10-25T05:13:27.538Z,1012.45
2017-10-25T05:14:08.138Z,1012.49
2017-10-25T05:14:48.735Z,1012.47
2017-10-25T05:15:29.329Z,1012.46
2017-10-25T05:16:09.949Z,1012.48
2017-10-25T05:16:50.552Z,1012.45
2017-10-25T05:17:31.143Z,1012.47
2017-10-25T05:18:11.718Z,1012.44
2017-10-25T05:18:52.309Z,1012.42
2017-10-25T05:19:32.978Z,1012.43
2017-10-25T05:20:13.590Z,1012.44
2017-10-25T05:20:54.223Z,1012.46
2017-10-25T05:21:34.833Z,1012.45
2017-10-25T05:22:15.403Z,1012.47
2017-10-25T05:22:55.999Z,1012.45
2017-10-25T05:23:36.611Z,1012.44
2017-10-25T05:24:17.296Z,1012.45
2017-10-25T05:24:57.861Z,1012.45
2017-10-25T05:25:38.469Z,1012.44
2017-10-25T05:26:19.046Z,1012.43
2017-10-25T05:26:59.659Z,1012.47
2017-10-25T05:27:40.341Z,1012.46
2017-10-25T05:28:20.943Z,1012.46
2017-10-25T05:29:01.554Z,1012.42
2017-10-25T05:29:42.336Z,1012.44
2017-10-25T05:30:23.134Z,1012.45
2017-10-25T05:31:03.750Z,1012.42
2017-10-25T05:31:44.403Z,1012.47
2017-10-25T05:32:25.009Z,1012.52
2017-10-25T05:33:05.617Z,1012.44
2017-10-25T05:33:46.210Z,1012.47
2017-10-25T05:34:26.840Z,1012.47
2017-10-25T05:35:07.519Z,1012.47
2017-10-25T05:35:48.223Z,1012.5
2017-10-25T05:36:28.998Z,1012.51
2017-10-25T05:37:09.592Z,1012.5
2017-10-25T05:37:50.184Z,1012.49
2017-10-25T05:38:30.831Z,1012.5
2017-10-25T05:39:11.478Z,1012.53
2017-10-25T05:39:52.073Z,1012.51
2017-10-25T05:40:32.826Z,1012.53
2017-10-25T05:41:13.702Z,1012.53
2017-10-25T05:41:54.413Z,1012.52
2017-10-25T05:42:35.151Z,1012.53
2017-10-25T05:43:15.800Z,1012.53
2017-10-25T05:43:56.538Z,1012.53
2017-10-25T05:44:37.278Z,1012.55
2017-10-25T05:45:18.087Z,1012.55
2017-10-25T05:45:58.800Z,1012.54
2017-10-25T05:46:39.474Z,1012.52
2017-10-25T05:47:20.374Z,1012.57
2017-10-25T05:48:01.173Z,1012.53
2017-10-25T05:48:41.725Z,1012.56
2017-10-25T05:49:22.297Z,1012.53
2017-10-25T05:50:02.933Z,1012.56
2017-10-25T05:50:43.523Z,1012.52
2017-10-25T05:51:24.133Z,1012.5
2017-10-25T05:52:04.717Z,1012.48
2017-10-25T05:52:45.295Z,1012.52
2017-10-25T05:53:25.932Z,1012.58
2017-10-25T05:54:06.597Z,1012.59
2017-10-25T05:54:47.197Z,1012.53
2017-10-25T05:55:27.831Z,1012.57
2017-10-25T05:56:08.434Z,1012.58
2017-10-25T05:56:49.027Z,1012.55
2017-10-25T05:57:29.611Z,1012.52
2017-10-25T05:58:10.245Z,1012.59
2017-10-25T05:58:50.830Z,1012.58
2017-10-25T05:59:31.465Z,1012.58
2017-10-25T06:00:12.074Z,1012.61
2017-10-25T06:00:52.666Z,1012.59
2017-10-25T06:01:33.246Z,1012.57
2017-10-25T06:02:13.924Z,1012.58
2017-10-25T06:02:54.519Z,1012.56
2017-10-25T06:03:35.135Z,1012.58
2017-10-25T06:04:15.700Z,1012.58
2017-10-25T06:04:56.269Z,1012.54
2017-10-25T06:05:36.826Z,1012.59
2017-10-25T06:06:17.414Z,1012.64
2017-10-25T06:06:58.004Z,1012.63
2017-10-25T06:07:38.626Z,1012.64
2017-10-25T06:08:19.193Z,1012.67
2017-10-25T06:08:59.789Z,1012.66
2017-10-25T06:09:40.367Z,1012.68
2017-10-25T06:10:20.950Z,1012.66
2017-10-25T06:11:01.587Z,1012.67
2017-10-25T06:11:42.209Z,1012.68
2017-10-25T06:12:22.766Z,1012.67
2017-10-25T06:13:03.371Z,1012.65
2017-10-25T06:13:43.957Z,1012.66
2017-10-25T06:14:24.546Z,1012.68
2017-10-25T06:15:05.175Z,1012.66
2017-10-25T06:15:45.753Z,1012.76
2017-10-25T06:16:26.320Z,1012.67
2017-10-25T06:17:06.919Z,1012.67
2017-10-25T06:17:47.515Z,1012.69
2017-10-25T06:18:28.074Z,1012.62
2017-10-25T06:19:08.660Z,1012.68
2017-10-25T06:19:49.221Z,1012.65
2017-10-25T06:20:29.822Z,1012.64
2017-10-25T06:21:10.400Z,1012.66
2017-10-25T06:21:51.033Z,1012.67
2017-10-25T06:22:31.616Z,1012.69
2017-10-25T06:23:12.233Z,1012.67
2017-10-25T06:23:52.825Z,1012.65
2017-10-25T06:24:33.402Z,1012.65
2017-10-25T06:25:13.995Z,1012.63
2017-10-25T06:25:54.568Z,1012.66
2017-10-25T06:26:35.159Z,1012.68
2017-10-25T06:27:15.741Z,1012.64
2017-10-25T06:27:56.337Z,1012.63
2017-10-25T06:28:36.908Z,1012.63
2017-10-25T06:29:17.497Z,1012.63
2017-10-25T06:29:58.126Z,1012.6
2017-10-25T06:30:38.711Z,1012.65
2017-10-25T06:31:19.303Z,1012.65
2017-10-25T06:31:59.902Z,1012.62
2017-10-25T06:32:40.523Z,1012.65
2017-10-25T06:33:21.114Z,1012.66
2017-10-25T06:34:01.700Z,1012.7
2017-10-25T06:34:42.259Z,1012.66
2017-10-25T06:35:22.864Z,1012.66
2017-10-25T06:36:03.442Z,1012.66
2017-10-25T06:36:44.007Z,1012.67
2017-10-25T06:37:24.571Z,1012.71
2017-10-25T06:38:05.166Z,1012.77
2017-10-25T06:38:45.752Z,1012.73
2017-10-25T06:39:26.322Z,1012.71
2017-10-25T06:40:06.897Z,1012.74
2017-10-25T06:40:47.474Z,1012.73
2017-10-25T06:41:28.082Z,1012.73
2017-10-25T06:42:08.676Z,1012.73
2017-10-25T06:42:49.259Z,1012.76
2017-10-25T06:43:29.953Z,1012.75
2017-10-25T06:44:10.582Z,1012.7
2017-10-25T06:44:51.185Z,1012.72
2017-10-25T06:45:31.739Z,1012.73
2017-10-25T06:46:12.343Z,1012.71
2017-10-25T06:46:52.970Z,1012.72
2017-10-25T06:47:33.544Z,1012.77
2017-10-25T06:48:14.108Z,1012.79
2017-10-25T06:48:54.731Z,1012.72
2017-10-25T06:49:35.300Z,1012.72
2017-10-25T06:50:15.878Z,1012.77
2017-10-25T06:50:56.493Z,1012.74
2017-10-25T06:51:37.097Z,1012.75
2017-10-25T06:52:17.693Z,1012.77
2017-10-25T06:52:58.303Z,1012.71
2017-10-25T06:53:38.890Z,1012.69
2017-10-25T06:54:19.470Z,1012.74
2017-10-25T06:55:00.063Z,1012.72
2017-10-25T06:55:40.644Z,1012.73
2017-10-25T06:56:21.205Z,1012.75
2017-10-25T06:57:01.802Z,1012.73
2017-10-25T06:57:42.391Z,1012.74
2017-10-25T06:58:22.999Z,1012.72
2017-10-25T06:59:03.574Z,1012.71
2017-10-25T06:59:44.163Z,1012.7
2017-10-25T07:00:24.749Z,1012.68
2017-10-25T07:01:05.332Z,1012.69
2017-10-25T07:01:45.969Z,1012.74
2017-10-25T07:02:26.535Z,1012.75
2017-10-25T07:03:07.122Z,1012.81
2017-10-25T07:03:47.698Z,1012.77
2017-10-25T07:04:28.323Z,1012.75
2017-10-25T07:05:08.905Z,1012.78
2017-10-25T07:05:49.480Z,1012.76
2017-10-25T07:06:30.058Z,1012.74
2017-10-25T07:07:10.627Z,1012.76
2017-10-25T07:07:51.201Z,1012.74
2017-10-25T07:08:31.818Z,1012.76
2017-10-25T07:09:12.453Z,1012.76
2017-10-25T07:09:53.046Z,1012.74
2017-10-25T07:10:33.649Z,1012.73
2017-10-25T07:11:14.308Z,1012.72
2017-10-25T07:11:54.893Z,1012.72
2017-10-25T07:12:35.508Z,1012.74
2017-10-25T07:13:16.058Z,1012.71
2017-10-25T07:13:56.645Z,1012.68
2017-10-25T07:14:37.269Z,1012.7
2017-10-25T07:15:17.846Z,1012.71
2017-10-25T07:15:58.411Z,1012.68
2017-10-25T07:16:39.022Z,1012.68
2017-10-25T07:17:19.633Z,1012.68
2017-10-25T07:18:00.201Z,1012.63
2017-10-25T07:18:40.780Z,1012.67
2017-10-25T07:19:21.369Z,1012.6
2017-10-25T07:20:01.939Z,1012.65
2017-10-25T07:20:42.529Z,1012.64
2017-10-25T07:21:23.137Z,1012.68
2017-10-25T07:22:03.729Z,1012.71
2017-10-25T07:22:44.326Z,1012.7
2017-10-25T07:23:24.943Z,1012.77
2017-10-25T07:24:05.529Z,1012.79
2017-10-25T07:24:46.119Z,1012.73
2017-10-25T07:25:26.696Z,1012.72
2017-10-25T07:26:07.286Z,1012.74
2017-10-25T07:26:47.911Z,1012.81
2017-10-25T07:27:28.525Z,1012.69
2017-10-25T07:28:09.129Z,1012.74
2017-10-25T07:28:49.802Z,1012.74
2017-10-25T07:29:30.413Z,1012.69
2017-10-25T07:30:10.998Z,1012.67
2017-10-25T07:30:51.569Z,1012.67
2017-10-25T07:31:32.158Z,1012.67
2017-10-25T07:32:12.731Z,1012.64
2017-10-25T07:32:53.309Z,1012.63
2017-10-25T07:33:33.898Z,1012.67
2017-10-25T07:34:14.471Z,1012.66
2017-10-25T07:34:55.057Z,1012.65
2017-10-25T07:35:35.663Z,1012.65
2017-10-25T07:36:16.270Z,1012.66
2017-10-25T07:36:56.881Z,1012.68
2017-10-25T07:37:37.448Z,1012.63
2017-10-25T07:38:18.032Z,1012.64
2017-10-25T07:38:58.640Z,1012.68
2017-10-25T07:39:39.227Z,1012.61
2017-10-25T07:40:19.833Z,1012.59
2017-10-25T07:41:00.411Z,1012.61
2017-10-25T07:41:40.991Z,1012.58
2017-10-25T07:42:21.588Z,1012.57
2017-10-25T07:43:02.174Z,1012.56
2017-10-25T07:43:42.752Z,1012.55
2017-10-25T07:44:23.340Z,1012.57
2017-10-25T07:45:03.906Z,1012.62
2017-10-25T07:45:44.474Z,1012.58
2017-10-25T07:46:25.054Z,1012.55
2017-10-25T07:47:05.645Z,1012.55
2017-10-25T07:47:46.226Z,1012.53
2017-10-25T07:48:26.810Z,1012.54
2017-10-25T07:49:07.403Z,1012.55
2017-10-25T07:49:48.012Z,1012.55
2017-10-25T07:50:28.574Z,1012.55
2017-10-25T07:51:09.158Z,1012.55
2017-10-25T07:51:49.726Z,1012.57
2017-10-25T07:52:30.349Z,1012.55
2017-10-25T07:53:10.917Z,1012.56
2017-10-25T07:53:51.489Z,1012.57
2017-10-25T07:54:32.075Z,1012.6
2017-10-25T07:55:12.670Z,1012.56
2017-10-25T07:55:53.246Z,1012.59
2017-10-25T07:56:33.852Z,1012.62
2017-10-25T07:57:14.420Z,1012.61
2017-10-25T07:57:55.016Z,1012.62
2017-10-25T07:58:35.823Z,1012.6
2017-10-25T07:59:17.193Z,1012.6
2017-10-25T07:59:57.792Z,1012.58
2017-10-25T08:00:38.403Z,1012.6
2017-10-25T08:01:18.996Z,1012.66
2017-10-25T08:01:59.625Z,1012.56
2017-10-25T08:02:40.435Z,1012.58
2017-10-25T08:03:21.257Z,1012.64
2017-10-25T08:04:02.012Z,1012.59
2017-10-25T08:04:43.483Z,1012.63
2017-10-25T08:05:24.153Z,1012.65
2017-10-25T08:06:04.874Z,1012.67
2017-10-25T08:06:45.458Z,1012.63
2017-10-25T08:07:26.050Z,1012.65
2017-10-25T08:08:06.654Z,1012.64
2017-10-25T08:08:47.243Z,1012.63
2017-10-25T08:09:27.815Z,1012.67
2017-10-25T08:10:08.419Z,1012.68
2017-10-25T08:10:49.024Z,1012.61
2017-10-25T08:11:29.625Z,1012.6
2017-10-25T08:12:10.207Z,1012.59
2017-10-25T08:12:50.787Z,1012.61
2017-10-25T08:13:31.373Z,1012.63